createdAt,value
2023-02-09T00:00:28.040Z,86.73
2023-02-09T00:02:08.685Z,87.31
2023-02-09T00:03:48.962Z,87.57
2023-02-09T00:05:29.238Z,87.6
2023-02-09T00:07:09.697Z,87.42
2023-02-09T00:08:50.128Z,87.57
2023-02-09T00:10:30.624Z,87.56
2023-02-09T00:12:11.064Z,87.55
2023-02-09T00:13:51.448Z,87.29
2023-02-09T00:15:31.923Z,87.32
2023-02-09T00:17:12.331Z,86.95
2023-02-09T00:18:52.743Z,86.56
2023-02-09T00:20:33.270Z,86.34
2023-02-09T00:22:13.697Z,86.51
2023-02-09T00:23:54.202Z,86.14
2023-02-09T00:25:34.646Z,86.07
2023-02-09T00:27:14.975Z,86.02
2023-02-09T00:28:55.309Z,85.62
2023-02-09T00:30:35.821Z,85.69
2023-02-09T00:32:16.194Z,86.02
2023-02-09T00:33:56.711Z,86.34
2023-02-09T00:35:37.174Z,86.63
2023-02-09T00:37:17.536Z,87.12
2023-02-09T00:38:57.902Z,87.11
2023-02-09T00:40:38.409Z,87.23
2023-02-09T00:42:18.878Z,87.33
2023-02-09T00:43:59.368Z,87.27
2023-02-09T00:45:39.868Z,87.06
2023-02-09T00:47:20.267Z,86.98
2023-02-09T00:49:00.691Z,86.88
2023-02-09T00:50:41.006Z,86.68
2023-02-09T00:52:21.517Z,86.49
2023-02-09T00:54:01.986Z,86.61
2023-02-09T00:55:42.469Z,86.15
2023-02-09T00:57:22.904Z,86.08
2023-02-09T00:59:03.329Z,86.37
2023-02-09T01:00:43.915Z,86.27
2023-02-09T01:02:23.862Z,86.39
2023-02-09T01:04:04.194Z,86.82
2023-02-09T01:05:44.495Z,86.79
2023-02-09T01:07:24.764Z,87.1
2023-02-09T01:09:05.095Z,86.72
2023-02-09T01:10:45.811Z,86.83
2023-02-09T01:12:26.079Z,87.17
2023-02-09T01:14:06.514Z,87.34
2023-02-09T01:15:46.901Z,87.2
2023-02-09T01:17:27.365Z,87.19
2023-02-09T01:19:07.853Z,87.13
2023-02-09T01:20:48.181Z,86.69
2023-02-09T01:22:28.701Z,86.81
2023-02-09T01:24:09.120Z,86.69
2023-02-09T01:25:49.590Z,86.8
2023-02-09T01:27:30.028Z,86.7
2023-02-09T01:29:10.532Z,86.62
2023-02-09T01:30:50.899Z,86.54
2023-02-09T01:32:31.100Z,86.74
2023-02-09T01:34:11.482Z,86.94
2023-02-09T01:35:51.940Z,87.1
2023-02-09T01:37:32.479Z,86.85
2023-02-09T01:39:12.866Z,87.27
2023-02-09T01:40:53.398Z,87.41
2023-02-09T01:42:33.914Z,87.08
2023-02-09T01:44:14.351Z,86.87
2023-02-09T01:45:54.914Z,86.74
2023-02-09T01:47:35.232Z,87.46
2023-02-09T01:49:15.701Z,87.86
2023-02-09T01:50:56.204Z,88.19
2023-02-09T01:52:36.711Z,88.25
2023-02-09T01:54:17.032Z,88.6
2023-02-09T01:55:57.416Z,88.7
2023-02-09T01:57:37.892Z,89.15
2023-02-09T01:59:18.357Z,89.02
2023-02-09T02:01:00.147Z,89.22
2023-02-09T02:02:39.226Z,89.18
2023-02-09T02:04:19.619Z,88.86
2023-02-09T02:06:00.117Z,88.56
2023-02-09T02:07:40.414Z,88.55
2023-02-09T02:09:20.747Z,88.66
2023-02-09T02:11:01.183Z,88.64
2023-02-09T02:12:41.718Z,88.45
2023-02-09T02:14:22.090Z,88.54
2023-02-09T02:16:02.685Z,88.27
2023-02-09T02:17:43.036Z,87.99
2023-02-09T02:19:23.444Z,88.08
2023-02-09T02:21:03.858Z,88.36
2023-02-09T02:22:44.316Z,88.13
2023-02-09T02:24:24.768Z,87.96
2023-02-09T02:26:07.074Z,87.76
2023-02-09T02:27:45.777Z,87.78
2023-02-09T02:29:26.243Z,87.9
2023-02-09T02:31:06.723Z,88.17
2023-02-09T02:32:46.845Z,87.98
2023-02-09T02:34:27.129Z,87.58
2023-02-09T02:36:07.467Z,87.07
2023-02-09T02:37:47.752Z,87.02
2023-02-09T02:39:28.096Z,87.12
2023-02-09T02:41:08.591Z,86.87
2023-02-09T02:42:48.988Z,86.85
2023-02-09T02:44:29.467Z,86.7
2023-02-09T02:46:10.047Z,86.65
2023-02-09T02:47:50.379Z,86.76
2023-02-09T02:49:30.780Z,86.65
2023-02-09T02:51:11.074Z,86.78
2023-02-09T02:52:51.350Z,86.86
2023-02-09T02:54:31.695Z,87.01
2023-02-09T02:56:12.080Z,87.01
2023-02-09T02:57:52.628Z,87.06
2023-02-09T02:59:33.021Z,86.59
2023-02-09T03:01:13.677Z,86.67
2023-02-09T03:02:54.106Z,86.42
2023-02-09T03:04:34.395Z,86.35
2023-02-09T03:06:14.692Z,86.25
2023-02-09T03:07:55.007Z,86.16
2023-02-09T03:11:15.884Z,86.1
2023-02-09T03:12:56.258Z,86.36
2023-02-09T03:14:36.680Z,86.33
2023-02-09T03:16:17.250Z,86.03
2023-02-09T03:17:57.635Z,85.9
2023-02-09T03:19:38.058Z,86.09
2023-02-09T03:21:18.523Z,86.02
2023-02-09T03:22:58.925Z,85.88
2023-02-09T03:24:39.444Z,85.95
2023-02-09T03:26:19.825Z,85.79
2023-02-09T03:28:00.398Z,85.81
2023-02-09T03:29:40.746Z,85.83
2023-02-09T03:31:21.475Z,86.16
2023-02-09T03:33:01.746Z,86.22
2023-02-09T03:34:42.096Z,86.8
2023-02-09T03:36:22.385Z,86.65
2023-02-09T03:38:02.778Z,86.51
2023-02-09T03:39:43.195Z,86.53
2023-02-09T03:41:23.580Z,86.76
2023-02-09T03:43:04.011Z,86.88
2023-02-09T03:44:44.471Z,87.14
2023-02-09T03:46:24.988Z,87.03
2023-02-09T03:48:05.488Z,87.19
2023-02-09T03:49:45.936Z,87.36
2023-02-09T03:51:26.349Z,87.49
2023-02-09T03:53:06.824Z,87.26
2023-02-09T03:54:47.273Z,87.64
2023-02-09T03:56:27.776Z,88.01
2023-02-09T03:58:08.312Z,88.27
2023-02-09T03:59:48.663Z,88.27
2023-02-09T04:01:28.946Z,88.46
2023-02-09T04:03:09.266Z,88.57
2023-02-09T04:04:49.519Z,88.33
2023-02-09T04:06:29.830Z,88.36
2023-02-09T04:08:10.111Z,87.95
2023-02-09T04:09:50.394Z,88.03
2023-02-09T04:11:30.641Z,87.99
2023-02-09T04:13:10.979Z,88.18
2023-02-09T04:14:51.322Z,88.18
2023-02-09T04:16:31.621Z,87.93
2023-02-09T04:18:11.930Z,87.81
2023-02-09T04:19:52.270Z,88.08
2023-02-09T04:21:32.564Z,87.95
2023-02-09T04:23:12.863Z,88.22
2023-02-09T04:24:53.205Z,88.08
2023-02-09T04:26:33.444Z,88.12
2023-02-09T04:28:13.892Z,87.6
2023-02-09T04:29:54.058Z,87.22
2023-02-09T04:31:34.370Z,86.87
2023-02-09T04:33:14.680Z,87.03
2023-02-09T04:34:54.961Z,86.93
2023-02-09T04:36:35.233Z,86.99
2023-02-09T04:38:15.532Z,87.25
2023-02-09T04:39:55.839Z,86.95
2023-02-09T04:41:36.334Z,86.83
2023-02-09T04:43:16.709Z,86.84
2023-02-09T04:44:57.141Z,86.72
2023-02-09T04:46:37.640Z,86.33
2023-02-09T04:48:18.074Z,86.59
2023-02-09T04:49:58.629Z,86.69
2023-02-09T04:51:39.102Z,86.77
2023-02-09T04:53:19.605Z,86.21
2023-02-09T04:55:00.044Z,85.96
2023-02-09T04:56:40.562Z,85.98
2023-02-09T04:58:20.900Z,85.58
2023-02-09T05:00:01.208Z,85.64
2023-02-09T05:01:41.479Z,85.84
2023-02-09T05:03:24.302Z,85.45
2023-02-09T05:05:02.068Z,85.72
2023-02-09T05:06:42.289Z,86.13
2023-02-09T05:08:22.658Z,85.95
2023-02-09T05:10:03.049Z,86.56
2023-02-09T05:11:43.342Z,87.31
2023-02-09T05:13:23.616Z,87.43
2023-02-09T05:15:03.912Z,87.24
2023-02-09T05:16:44.373Z,87.07
2023-02-09T05:18:24.752Z,87.22
2023-02-09T05:20:05.239Z,87.44
2023-02-09T05:21:45.769Z,87.32
2023-02-09T05:23:26.187Z,87.38
2023-02-09T05:25:06.709Z,87.52
2023-02-09T05:26:47.231Z,87.31
2023-02-09T05:28:27.826Z,87.18
2023-02-09T05:30:08.147Z,86.73
2023-02-09T05:31:48.665Z,86.57
2023-02-09T05:33:28.929Z,86.47
2023-02-09T05:35:09.207Z,86
2023-02-09T05:36:49.579Z,85.36
2023-02-09T05:38:30.028Z,84.93
2023-02-09T05:40:10.282Z,84.76
2023-02-09T05:41:50.745Z,84.37
2023-02-09T05:43:31.242Z,84.7
2023-02-09T05:45:11.691Z,84.74
2023-02-09T05:46:52.112Z,84.72
2023-02-09T05:48:32.619Z,84.76
2023-02-09T05:50:13.027Z,84.74
2023-02-09T05:51:53.460Z,83.91
2023-02-09T05:53:33.963Z,83.51
2023-02-09T05:55:14.486Z,83.2
2023-02-09T05:56:54.975Z,83.33
2023-02-09T05:58:35.369Z,83.18
2023-02-09T06:00:15.843Z,83.39
2023-02-09T06:01:56.097Z,83.4
2023-02-09T06:03:36.585Z,83.43
2023-02-09T06:05:16.933Z,83.44
2023-02-09T06:06:57.400Z,83.42
2023-02-09T06:08:37.927Z,83.5
2023-02-09T06:10:18.363Z,83.65
2023-02-09T06:11:58.797Z,83.74
2023-02-09T06:13:39.294Z,83.73
2023-02-09T06:15:19.691Z,83.55
2023-02-09T06:17:00.192Z,83.37
2023-02-09T06:18:40.662Z,83.02
2023-02-09T06:20:21.010Z,83.01
2023-02-09T06:22:01.322Z,82.98
2023-02-09T06:23:41.632Z,83.04
2023-02-09T06:25:21.878Z,82.76
2023-02-09T06:27:02.252Z,82.64
2023-02-09T06:28:42.739Z,82.74
2023-02-09T06:30:23.104Z,82.7
2023-02-09T06:32:09.208Z,82.58
2023-02-09T06:33:49.381Z,82.49
2023-02-09T06:35:29.695Z,82.42
2023-02-09T06:37:10.052Z,82.66
2023-02-09T06:38:50.542Z,82.91
2023-02-09T06:40:31.030Z,83.02
2023-02-09T06:42:11.456Z,83.1
2023-02-09T06:43:51.896Z,83.16
2023-02-09T06:45:32.413Z,83.04
2023-02-09T06:47:12.714Z,83.09
2023-02-09T06:48:53.023Z,83.14
2023-02-09T06:50:33.387Z,83.07
2023-02-09T06:52:13.621Z,83.01
2023-02-09T06:53:53.925Z,83.05
2023-02-09T06:55:34.339Z,83.18
2023-02-09T06:57:14.737Z,83.1
2023-02-09T06:58:55.218Z,83.06
2023-02-09T07:00:35.622Z,82.64
2023-02-09T07:02:16.184Z,82.58
2023-02-09T07:03:56.428Z,82.17
2023-02-09T07:05:36.927Z,82.03
2023-02-09T07:07:17.475Z,81.9
2023-02-09T07:08:57.909Z,81.88
2023-02-09T07:10:38.354Z,81.73
2023-02-09T07:12:18.791Z,81.64
2023-02-09T07:13:59.243Z,81.64
2023-02-09T07:15:39.759Z,81.68
2023-02-09T07:17:20.069Z,81.61
2023-02-09T07:19:00.562Z,81.33
2023-02-09T07:20:40.956Z,81.27
2023-02-09T07:22:21.414Z,81.2
2023-02-09T07:24:01.876Z,80.9
2023-02-09T07:25:42.437Z,80.86
2023-02-09T07:27:22.837Z,80.96
2023-02-09T07:29:03.297Z,80.9
2023-02-09T07:30:44.029Z,80.4
2023-02-09T07:32:24.221Z,80.13
2023-02-09T07:34:04.666Z,79.89
2023-02-09T07:35:45.100Z,79.54
2023-02-09T07:37:25.579Z,79.35
2023-02-09T07:39:06.025Z,79.36
2023-02-09T07:40:47.089Z,79.2
2023-02-09T07:42:27.035Z,78.92
2023-02-09T07:44:07.462Z,78.74
2023-02-09T07:45:48.177Z,78.13
2023-02-09T07:47:28.424Z,77.28
2023-02-09T07:49:08.885Z,76.75
2023-02-09T07:50:49.295Z,76.29
2023-02-09T07:52:29.724Z,75.58
2023-02-09T07:54:10.218Z,75.07
2023-02-09T07:55:50.700Z,74.07
2023-02-09T07:57:31.246Z,73.94
2023-02-09T07:59:11.692Z,73.38
2023-02-09T08:00:52.124Z,73.07
2023-02-09T08:02:32.522Z,73.29
2023-02-09T08:04:12.993Z,73.58
2023-02-09T08:05:53.457Z,72.47
2023-02-09T08:07:33.881Z,72.39
2023-02-09T08:09:14.293Z,72.04
2023-02-09T08:10:54.827Z,71.68
2023-02-09T08:12:35.270Z,71.66
2023-02-09T08:14:15.664Z,71.68
2023-02-09T08:15:56.186Z,72.11
2023-02-09T08:17:36.576Z,71.83
2023-02-09T08:19:17.005Z,71.86
2023-02-09T08:20:57.482Z,72.07
2023-02-09T08:22:37.943Z,71.58
2023-02-09T08:24:18.405Z,71.6
2023-02-09T08:25:58.912Z,71.21
2023-02-09T08:27:39.336Z,70.39
2023-02-09T08:29:19.818Z,70.13
2023-02-09T08:31:00.334Z,69.53
2023-02-09T08:32:40.827Z,68.8
2023-02-09T08:34:21.345Z,68.59
2023-02-09T08:36:01.850Z,68.2
2023-02-09T08:37:42.392Z,68.37
2023-02-09T08:39:22.722Z,68.71
2023-02-09T08:41:03.197Z,68.55
2023-02-09T08:42:43.692Z,68.14
2023-02-09T08:44:24.132Z,68.82
2023-02-09T08:46:04.764Z,67.76
2023-02-09T08:47:45.103Z,68.24
2023-02-09T08:49:25.566Z,68.21
2023-02-09T08:51:06.075Z,67.84
2023-02-09T08:52:46.526Z,68.37
2023-02-09T08:54:26.950Z,68.42
2023-02-09T08:56:07.388Z,67.83
2023-02-09T08:57:53.793Z,67.3
2023-02-09T08:59:34.311Z,67.7
2023-02-09T09:01:14.812Z,66.49
2023-02-09T09:02:55.259Z,66.71
2023-02-09T09:04:35.823Z,66.92
2023-02-09T09:06:17.225Z,66.14
2023-02-09T09:07:56.649Z,66.6
2023-02-09T09:09:37.137Z,67.02
2023-02-09T09:11:17.553Z,66.86
2023-02-09T09:12:58.030Z,66.62
2023-02-09T09:14:38.517Z,65.88
2023-02-09T09:16:19.094Z,66.06
2023-02-09T09:17:59.477Z,65.1
2023-02-09T09:19:39.880Z,64.92
2023-02-09T09:21:20.369Z,64.77
2023-02-09T09:23:00.880Z,64.69
2023-02-09T09:24:41.315Z,65.29
2023-02-09T09:26:27.798Z,63.62
2023-02-09T09:28:08.199Z,62.77
2023-02-09T09:29:48.639Z,61.98
2023-02-09T09:31:29.207Z,61.35
2023-02-09T09:33:09.665Z,61.43
2023-02-09T09:34:50.161Z,61.92
2023-02-09T09:36:30.578Z,61.23
2023-02-09T09:38:11.012Z,60.78
2023-02-09T09:39:51.492Z,60.06
2023-02-09T09:41:31.956Z,60.32
2023-02-09T09:43:12.481Z,59.96
2023-02-09T09:44:52.922Z,59.55
2023-02-09T09:46:33.480Z,58.36
2023-02-09T09:48:13.880Z,57.26
2023-02-09T09:49:54.346Z,58.31
2023-02-09T09:51:34.816Z,57.13
2023-02-09T09:53:15.324Z,57.08
2023-02-09T09:54:55.819Z,57.61
2023-02-09T09:56:36.224Z,56.81
2023-02-09T09:58:16.690Z,56.59
2023-02-09T09:59:57.114Z,55.56
2023-02-09T10:01:43.279Z,56.27
2023-02-09T10:03:23.714Z,55.42
2023-02-09T10:05:04.252Z,56.02
2023-02-09T10:06:44.732Z,56.17
2023-02-09T10:08:25.187Z,56.07
2023-02-09T10:10:05.652Z,55.68
2023-02-09T10:11:46.067Z,54.41
2023-02-09T10:13:26.537Z,55.3
2023-02-09T10:15:07.084Z,54.63
2023-02-09T10:16:47.582Z,54.65
2023-02-09T10:20:08.544Z,54.54
2023-02-09T10:21:49.016Z,55.1
2023-02-09T10:23:29.506Z,53.79
2023-02-09T10:25:09.993Z,52.59
2023-02-09T10:26:50.490Z,51.18
2023-02-09T10:28:30.967Z,51.66
2023-02-09T10:30:11.344Z,51.44
2023-02-09T10:31:51.974Z,51.7
2023-02-09T10:33:32.292Z,51.48
2023-02-09T10:35:12.851Z,50.91
2023-02-09T10:36:53.363Z,52.04
2023-02-09T10:38:33.826Z,51.54
2023-02-09T10:40:14.211Z,51.47
2023-02-09T10:41:54.713Z,51.19
2023-02-09T10:43:35.132Z,50.59
2023-02-09T10:45:15.662Z,50.73
2023-02-09T10:46:56.102Z,50.42
2023-02-09T10:48:36.521Z,51.02
2023-02-09T10:50:17.064Z,50.85
2023-02-09T10:51:57.501Z,50.6
2023-02-09T10:53:38.045Z,50.62
2023-02-09T10:55:18.471Z,50.94
2023-02-09T10:57:00.394Z,50.82
2023-02-09T10:58:39.419Z,51.76
2023-02-09T11:00:19.872Z,51.88
2023-02-09T11:02:00.401Z,51.23
2023-02-09T11:03:40.869Z,51.17
2023-02-09T11:05:21.285Z,50.61
2023-02-09T11:07:01.798Z,51.03
2023-02-09T11:08:42.219Z,49.9
2023-02-09T11:10:22.596Z,50.09
2023-02-09T11:12:03.147Z,50.86
2023-02-09T11:13:43.561Z,50.88
2023-02-09T11:15:24.036Z,52.08
2023-02-09T11:17:04.474Z,50.09
2023-02-09T11:18:44.965Z,50.18
2023-02-09T11:20:25.426Z,50.3
2023-02-09T11:22:05.894Z,51.73
2023-02-09T11:23:46.309Z,49.07
2023-02-09T11:25:26.758Z,49.9
2023-02-09T11:27:07.265Z,49.74
2023-02-09T11:28:47.684Z,47.02
2023-02-09T11:30:28.167Z,48.42
2023-02-09T11:32:08.650Z,48.62
2023-02-09T11:33:49.245Z,48.09
2023-02-09T11:35:29.779Z,48.25
2023-02-09T11:37:10.266Z,47.8
2023-02-09T11:38:50.801Z,46.93
2023-02-09T11:40:31.269Z,47.94
2023-02-09T11:42:11.689Z,46.92
2023-02-09T11:43:52.174Z,46.79
2023-02-09T11:45:32.650Z,46.45
2023-02-09T11:47:13.194Z,46.44
2023-02-09T11:48:53.681Z,47.11
2023-02-09T11:50:34.124Z,46.5
2023-02-09T11:52:14.581Z,46.11
2023-02-09T11:53:55.097Z,46.81
2023-02-09T11:55:35.498Z,47.1
2023-02-09T11:57:16.009Z,47.31
2023-02-09T11:58:56.458Z,46.82
2023-02-09T12:00:47.933Z,46.96
2023-02-09T12:02:17.376Z,47.43
2023-02-09T12:03:57.751Z,46.77
2023-02-09T12:05:38.270Z,46.65
2023-02-09T12:07:18.702Z,46.63
2023-02-09T12:08:59.125Z,46.67
2023-02-09T12:10:39.618Z,45.93
2023-02-09T12:12:20.065Z,47.77
2023-02-09T12:14:00.526Z,49.3
2023-02-09T12:15:40.854Z,48.74
2023-02-09T12:17:21.350Z,49.59
2023-02-09T12:19:01.905Z,49.27
2023-02-09T12:20:42.406Z,49.02
2023-02-09T12:22:22.847Z,48.95
2023-02-09T12:24:03.268Z,47.65
2023-02-09T12:25:43.828Z,48.85
2023-02-09T12:27:24.210Z,49.15
2023-02-09T12:29:04.701Z,48.25
2023-02-09T12:30:45.482Z,49.78
2023-02-09T12:32:25.665Z,49.9
2023-02-09T12:34:06.116Z,49.3
2023-02-09T12:35:46.574Z,48.7
2023-02-09T12:37:27.662Z,49.69
2023-02-09T12:39:07.543Z,48.44
2023-02-09T12:40:48.020Z,49.48
2023-02-09T12:42:28.463Z,50.05
2023-02-09T12:44:09.028Z,49.63
2023-02-09T12:45:49.811Z,50.1
2023-02-09T12:47:29.926Z,49.05
2023-02-09T12:49:10.386Z,49.02
2023-02-09T12:50:50.879Z,49.25
2023-02-09T12:52:31.296Z,48.91
2023-02-09T12:54:11.694Z,49.85
2023-02-09T12:55:52.188Z,49.1
2023-02-09T12:57:32.589Z,47.75
2023-02-09T12:59:13.045Z,48.85
2023-02-09T13:01:00.674Z,48.56
2023-02-09T13:02:34.000Z,48.42
2023-02-09T13:04:14.642Z,46.47
2023-02-09T13:06:02.075Z,46.65
2023-02-09T13:07:35.505Z,46.05
2023-02-09T13:09:15.996Z,45.98
2023-02-09T13:10:59.514Z,44.75
2023-02-09T13:12:36.889Z,45.89
2023-02-09T13:14:17.315Z,45.08
2023-02-09T13:15:57.802Z,45.19
2023-02-09T13:17:38.199Z,45.57
2023-02-09T13:19:18.638Z,44.95
2023-02-09T13:20:59.255Z,44.31
2023-02-09T13:22:39.606Z,45.6
2023-02-09T13:24:20.032Z,44.47
2023-02-09T13:26:03.639Z,44.75
2023-02-09T13:27:40.963Z,44.86
2023-02-09T13:29:22.278Z,46.16
2023-02-09T13:31:05.015Z,44.71
2023-02-09T13:32:42.416Z,46.51
2023-02-09T13:34:25.977Z,44.97
2023-02-09T13:36:08.858Z,45.19
2023-02-09T13:37:47.017Z,45.55
2023-02-09T13:39:24.459Z,45.96
2023-02-09T13:41:04.912Z,46.62
2023-02-09T13:42:45.355Z,46.83
2023-02-09T13:44:25.763Z,47.61
2023-02-09T13:46:06.500Z,48.01
2023-02-09T13:47:46.691Z,47
2023-02-09T13:49:27.185Z,46.46
2023-02-09T13:51:07.724Z,46.54
2023-02-09T13:52:48.263Z,47.58
2023-02-09T13:54:28.733Z,48.48
2023-02-09T13:56:09.161Z,46.93
2023-02-09T13:57:49.566Z,47.93
2023-02-09T13:59:30.017Z,47.15
2023-02-09T14:01:10.511Z,46.11
2023-02-09T14:02:50.974Z,46.93
2023-02-09T14:04:31.368Z,46.6
2023-02-09T14:06:11.766Z,47.64
2023-02-09T14:07:52.310Z,47.8
2023-02-09T14:09:32.754Z,46.91
2023-02-09T14:11:13.342Z,47.07
2023-02-09T14:12:53.775Z,46.94
2023-02-09T14:14:34.249Z,49.19
2023-02-09T14:16:14.764Z,50.51
2023-02-09T14:17:56.383Z,51.56
2023-02-09T14:19:35.663Z,50.93
2023-02-09T14:21:16.030Z,50.72
2023-02-09T14:22:56.475Z,51.89
2023-02-09T14:24:36.920Z,52.51
2023-02-09T14:26:17.348Z,52.52
2023-02-09T14:27:57.992Z,52.47
2023-02-09T14:29:38.291Z,52.93
2023-02-09T14:31:18.877Z,53.85
2023-02-09T14:32:59.305Z,54.05
2023-02-09T14:34:39.766Z,53.46
2023-02-09T14:36:20.180Z,54.16
2023-02-09T14:38:00.642Z,54.13
2023-02-09T14:39:41.118Z,54.09
2023-02-09T14:41:21.628Z,53.96
2023-02-09T14:43:02.129Z,54.35
2023-02-09T14:44:42.557Z,54.55
2023-02-09T14:46:23.053Z,55.43
2023-02-09T14:48:03.481Z,55.57
2023-02-09T14:49:43.974Z,55.17
2023-02-09T14:51:24.545Z,56.06
2023-02-09T14:53:04.913Z,56.56
2023-02-09T14:54:45.340Z,56.93
2023-02-09T14:56:25.822Z,57.03
2023-02-09T14:58:06.293Z,57.01
2023-02-09T14:59:46.692Z,57.4
2023-02-09T15:01:27.252Z,57.17
2023-02-09T15:03:07.736Z,57.67
2023-02-09T15:04:48.220Z,57.83
2023-02-09T15:06:28.650Z,58.03
2023-02-09T15:08:09.183Z,58.58
2023-02-09T15:09:49.639Z,58.56
2023-02-09T15:11:30.050Z,58.67
2023-02-09T15:13:11.901Z,58.71
2023-02-09T15:14:50.982Z,58.81
2023-02-09T15:16:31.405Z,59.22
2023-02-09T15:18:11.889Z,59.36
2023-02-09T15:19:52.416Z,59.47
2023-02-09T15:21:32.814Z,59.68
2023-02-09T15:23:13.329Z,60.15
2023-02-09T15:24:54.677Z,60.75
2023-02-09T15:26:34.172Z,61.46
2023-02-09T15:28:14.670Z,61.33
2023-02-09T15:29:56.592Z,61.93
2023-02-09T15:31:35.779Z,61.97
2023-02-09T15:33:16.166Z,62.88
2023-02-09T15:34:56.609Z,63.16
2023-02-09T15:36:37.134Z,63.86
2023-02-09T15:38:17.586Z,64.45
2023-02-09T15:39:58.068Z,65.13
2023-02-09T15:41:38.560Z,65.63
2023-02-09T15:43:19.027Z,66.02
2023-02-09T15:44:59.440Z,66.23
2023-02-09T15:46:40.059Z,66.81
2023-02-09T15:48:20.390Z,67.22
2023-02-09T15:50:06.118Z,67.76
2023-02-09T15:51:46.441Z,68.04
2023-02-09T15:53:26.746Z,67.55
2023-02-09T15:55:07.095Z,67.99
2023-02-09T15:56:47.584Z,68.78
2023-02-09T15:58:28.010Z,68.81
2023-02-09T16:00:08.461Z,69.15
2023-02-09T16:01:48.885Z,69.22
2023-02-09T16:03:29.268Z,69.41
2023-02-09T16:05:09.674Z,69.34
2023-02-09T16:06:50.053Z,69.68
2023-02-09T16:08:30.478Z,69.72
2023-02-09T16:10:10.920Z,70.38
2023-02-09T16:11:51.333Z,70.86
2023-02-09T16:13:31.755Z,70.58
2023-02-09T16:15:12.136Z,70.86
2023-02-09T16:16:52.770Z,70.53
2023-02-09T16:18:33.034Z,70.7
2023-02-09T16:20:13.512Z,70.62
2023-02-09T16:21:53.996Z,70.78
2023-02-09T16:23:34.396Z,70.81
2023-02-09T16:25:14.867Z,71.05
2023-02-09T16:27:01.902Z,71.08
2023-02-09T16:28:42.318Z,71.31
2023-02-09T16:30:22.755Z,71.81
2023-02-09T16:32:03.281Z,71.83
2023-02-09T16:33:43.692Z,72.05
2023-02-09T16:35:24.100Z,72.21
2023-02-09T16:37:04.519Z,72.34
2023-02-09T16:38:45.009Z,72.57
2023-02-09T16:40:25.523Z,72.6
2023-02-09T16:42:06.008Z,72.79
2023-02-09T16:43:46.456Z,72.95
2023-02-09T16:45:26.888Z,73.08
2023-02-09T16:47:07.299Z,73.3
2023-02-09T16:48:47.823Z,73.71
2023-02-09T16:50:28.289Z,73.53
2023-02-09T16:52:08.761Z,73.88
2023-02-09T16:53:49.230Z,73.88
2023-02-09T16:55:29.689Z,73.95
2023-02-09T16:57:10.115Z,74.4
2023-02-09T16:58:50.557Z,74.04
2023-02-09T17:00:31.119Z,74.31
2023-02-09T17:02:11.541Z,74.44
2023-02-09T17:03:51.986Z,74.51
2023-02-09T17:05:32.425Z,75.33
2023-02-09T17:07:12.937Z,75.44
2023-02-09T17:08:53.320Z,75.34
2023-02-09T17:10:33.766Z,74.8
2023-02-09T17:12:14.229Z,74.96
2023-02-09T17:13:54.607Z,75.08
2023-02-09T17:15:35.089Z,75.1
2023-02-09T17:17:15.556Z,75.03
2023-02-09T17:18:56.018Z,74.91
2023-02-09T17:20:36.597Z,74.91
2023-02-09T17:22:17.042Z,75.02
2023-02-09T17:23:57.536Z,74.79
2023-02-09T17:25:38.062Z,74.65
2023-02-09T17:27:18.482Z,74.64
2023-02-09T17:28:58.870Z,74.47
2023-02-09T17:30:39.543Z,74.7
2023-02-09T17:32:19.877Z,74.93
2023-02-09T17:34:00.308Z,75.28
2023-02-09T17:37:21.279Z,75.74
2023-02-09T17:39:01.831Z,76.01
2023-02-09T17:40:42.354Z,76.21
2023-02-09T17:42:22.882Z,76.39
2023-02-09T17:44:17.854Z,76.4
2023-02-09T17:45:44.090Z,76.75
2023-02-09T17:47:24.430Z,76.86
2023-02-09T17:49:04.948Z,77.38
2023-02-09T17:50:45.425Z,77.37
2023-02-09T17:52:25.867Z,77.68
2023-02-09T17:54:06.314Z,77.64
2023-02-09T17:55:47.044Z,77.92
2023-02-09T17:57:27.261Z,78.24
2023-02-09T17:59:07.786Z,79.76
2023-02-09T18:00:48.272Z,80.76
2023-02-09T18:02:31.907Z,80.37
2023-02-09T18:04:09.245Z,80.02
2023-02-09T18:05:49.792Z,80.46
2023-02-09T18:07:30.206Z,80.42
2023-02-09T18:09:10.727Z,79.99
2023-02-09T18:10:51.249Z,79.98
2023-02-09T18:12:34.819Z,80.5
2023-02-09T18:14:12.328Z,80.79
2023-02-09T18:15:52.764Z,81.5
2023-02-09T18:17:33.235Z,81.52
2023-02-09T18:19:13.699Z,81.51
2023-02-09T18:20:54.169Z,81.52
2023-02-09T18:22:34.675Z,81.56
2023-02-09T18:24:15.079Z,81.47
2023-02-09T18:25:55.536Z,81.24
2023-02-09T18:27:36.012Z,81.16
2023-02-09T18:29:16.503Z,81.21
2023-02-09T18:30:57.010Z,81.69
2023-02-09T18:32:37.429Z,82.3
2023-02-09T18:34:17.874Z,83.07
2023-02-09T18:35:58.396Z,82.9
2023-02-09T18:37:38.907Z,82.98
2023-02-09T18:39:19.282Z,83.23
2023-02-09T18:40:59.743Z,82.82
2023-02-09T18:42:40.254Z,83.14
2023-02-09T18:44:20.734Z,83.91
2023-02-09T18:46:01.217Z,84.76
2023-02-09T18:47:41.649Z,84.66
2023-02-09T18:49:22.168Z,85.14
2023-02-09T18:51:02.699Z,85.63
2023-02-09T18:52:43.167Z,86.08
2023-02-09T18:54:23.680Z,86.58
2023-02-09T18:56:04.106Z,86.92
2023-02-09T18:57:44.588Z,86.34
2023-02-09T18:59:25.106Z,85.97
2023-02-09T19:01:05.537Z,86.14
2023-02-09T19:02:46.095Z,86.41
2023-02-09T19:04:26.541Z,85.78
2023-02-09T19:06:07.027Z,86.37
2023-02-09T19:07:47.519Z,86.12
2023-02-09T19:09:27.959Z,85.96
2023-02-09T19:11:11.350Z,85.48
2023-02-09T19:12:48.762Z,86.68
2023-02-09T19:14:29.245Z,86.65
2023-02-09T19:16:09.772Z,86.12
2023-02-09T19:17:50.234Z,87.21
2023-02-09T19:19:30.668Z,87.2
2023-02-09T19:21:11.245Z,88.89
2023-02-09T19:22:51.737Z,89.62
2023-02-09T19:24:32.320Z,90.03
2023-02-09T19:26:12.697Z,89.86
2023-02-09T19:27:53.239Z,89.34
2023-02-09T19:29:33.636Z,89.05
2023-02-09T19:31:14.238Z,88.43
2023-02-09T19:32:54.752Z,88.3
2023-02-09T19:34:35.173Z,88.82
2023-02-09T19:36:15.603Z,88.84
2023-02-09T19:37:56.096Z,88.82
2023-02-09T19:39:36.521Z,88.57
2023-02-09T19:41:17.048Z,88.77
2023-02-09T19:42:57.512Z,88.83
2023-02-09T19:44:37.948Z,89.12
2023-02-09T19:46:18.432Z,89.02
2023-02-09T19:47:58.827Z,88.21
2023-02-09T19:49:39.404Z,87.66
2023-02-09T19:51:19.845Z,86.75
2023-02-09T19:53:00.338Z,86.02
2023-02-09T19:54:40.875Z,86.05
2023-02-09T19:56:21.433Z,86.02
2023-02-09T19:58:01.923Z,86.22
2023-02-09T19:59:42.372Z,86.14
2023-02-09T20:01:25.800Z,86.27
2023-02-09T20:03:03.245Z,86.03
2023-02-09T20:04:43.642Z,85.78
2023-02-09T20:06:28.744Z,86
2023-02-09T20:08:04.515Z,85.49
2023-02-09T20:09:44.947Z,85.56
2023-02-09T20:11:25.474Z,85.52
2023-02-09T20:13:05.892Z,85.39
2023-02-09T20:14:46.366Z,85.22
2023-02-09T20:16:27.009Z,85.15
2023-02-09T20:18:07.282Z,84.97
2023-02-09T20:19:47.657Z,84.86
2023-02-09T20:21:28.118Z,84.85
2023-02-09T20:23:08.582Z,84.65
2023-02-09T20:24:48.962Z,84.66
2023-02-09T20:26:29.405Z,84.54
2023-02-09T20:28:09.902Z,84.79
2023-02-09T20:29:53.305Z,84.64
2023-02-09T20:31:33.840Z,84.21
2023-02-09T20:33:11.260Z,84.12
2023-02-09T20:34:51.809Z,84.16
2023-02-09T20:36:32.225Z,84.01
2023-02-09T20:38:12.703Z,83.69
2023-02-09T20:39:53.125Z,83.38
2023-02-09T20:41:33.622Z,83.06
2023-02-09T20:43:14.136Z,82.79
2023-02-09T20:44:54.581Z,82.86
2023-02-09T20:46:35.093Z,82.58
2023-02-09T20:48:15.574Z,82.76
2023-02-09T20:49:55.997Z,82.57
2023-02-09T20:51:36.433Z,82.54
2023-02-09T20:53:16.929Z,82.28
2023-02-09T20:54:57.410Z,82.11
2023-02-09T20:56:37.879Z,81.74
2023-02-09T20:58:18.392Z,81.81
2023-02-09T20:59:58.927Z,81.86
2023-02-09T21:01:39.290Z,81.57
2023-02-09T21:03:19.737Z,81.44
2023-02-09T21:05:00.233Z,81.39
2023-02-09T21:06:40.721Z,81.17
2023-02-09T21:08:22.765Z,81.06
2023-02-09T21:10:01.686Z,80.85
2023-02-09T21:11:42.167Z,81.05
2023-02-09T21:13:22.609Z,80.7
2023-02-09T21:15:03.092Z,80.88
2023-02-09T21:16:43.624Z,80.44
2023-02-09T21:18:24.039Z,80.28
2023-02-09T21:20:04.470Z,80.02
2023-02-09T21:21:44.914Z,79.9
2023-02-09T21:23:25.407Z,79.92
2023-02-09T21:25:05.919Z,80.15
2023-02-09T21:26:46.298Z,80.42
2023-02-09T21:28:26.936Z,80.29
2023-02-09T21:30:07.370Z,80.46
2023-02-09T21:31:47.966Z,80.75
2023-02-09T21:33:28.223Z,80.2
2023-02-09T21:35:08.737Z,80.16
2023-02-09T21:36:49.206Z,80.06
2023-02-09T21:38:29.723Z,80.18
2023-02-09T21:40:10.177Z,79.95
2023-02-09T21:41:50.665Z,80.47
2023-02-09T21:43:31.136Z,80.01